createdAt,value
2023-05-07T16:16:19.339Z,46.11
2023-05-07T16:19:06.782Z,46.39
2023-05-07T16:21:52.993Z,46.09
2023-05-07T16:24:38.233Z,46.85
2023-05-07T16:27:23.507Z,47.19
2023-05-07T16:30:09.035Z,46.81
2023-05-07T16:32:54.405Z,46.11
2023-05-07T16:35:40.106Z,45.50
2023-05-07T16:38:26.859Z,45.00
2023-05-07T16:41:13.267Z,45.04
2023-05-07T16:43:58.621Z,45.44
2023-05-07T16:46:44.549Z,44.99
2023-05-07T16:49:29.828Z,45.96
2023-05-07T16:52:15.208Z,45.75
2023-05-07T16:55:01.427Z,45.97
2023-05-07T16:57:47.132Z,45.57
2023-05-07T17:00:46.322Z,45.69
2023-05-07T17:03:35.296Z,46.20
2023-05-07T17:06:23.207Z,46.99
2023-05-07T17:09:09.334Z,46.86
2023-05-07T17:11:54.838Z,47.16
2023-05-07T17:14:40.288Z,47.22
2023-05-07T17:17:25.556Z,47.28
2023-05-07T17:20:11.973Z,48.08
2023-05-07T17:22:57.285Z,48.00
2023-05-07T17:25:45.512Z,48.41
2023-05-07T17:28:30.620Z,48.28
2023-05-07T17:31:16.096Z,48.73
2023-05-07T17:34:01.392Z,48.41
2023-05-07T17:36:46.553Z,48.25
2023-05-07T17:39:31.802Z,48.15
2023-05-07T17:42:17.285Z,48.54
2023-05-07T17:45:02.382Z,48.90
2023-05-07T17:47:48.035Z,48.69
2023-05-07T17:50:33.354Z,49.06
2023-05-07T17:53:18.544Z,48.84
2023-05-07T17:56:03.750Z,49.09
2023-05-07T17:58:58.606Z,49.00
2023-05-07T18:01:45.236Z,49.01
2023-05-07T18:04:30.806Z,49.36
2023-05-07T18:07:15.826Z,49.88
2023-05-07T18:10:01.559Z,50.08
2023-05-07T18:12:46.721Z,50.07
2023-05-07T18:15:32.085Z,50.12
2023-05-07T18:18:18.627Z,49.95
2023-05-07T18:21:04.182Z,50.96
2023-05-07T18:23:49.536Z,51.06
2023-05-07T18:26:34.456Z,51.83
2023-05-07T18:29:20.113Z,51.84
2023-05-07T18:32:05.290Z,51.71
2023-05-07T18:34:50.392Z,51.70
2023-05-07T18:37:35.687Z,52.07
2023-05-07T18:40:21.027Z,52.02
2023-05-07T18:43:07.078Z,52.38
2023-05-07T18:45:52.661Z,52.36
2023-05-07T18:48:37.966Z,52.92
2023-05-07T18:51:23.529Z,53.21
2023-05-07T18:54:08.653Z,53.10
2023-05-07T18:56:54.180Z,53.10
2023-05-07T18:59:39.441Z,53.18
2023-05-07T19:02:24.716Z,53.50
2023-05-07T19:05:09.921Z,53.82
2023-05-07T19:07:55.313Z,53.68
2023-05-07T19:10:40.953Z,52.84
2023-05-07T19:13:27.396Z,52.98
2023-05-07T19:16:13.890Z,52.61
2023-05-07T19:18:58.921Z,52.52
2023-05-07T19:21:44.321Z,52.43
2023-05-07T19:24:29.547Z,52.26
2023-05-07T19:27:15.087Z,52.90
2023-05-07T19:30:00.426Z,52.37
2023-05-07T19:32:45.985Z,52.24
2023-05-07T19:35:31.378Z,51.87
2023-05-07T19:38:16.922Z,52.33
2023-05-07T19:41:02.631Z,52.59
2023-05-07T19:43:48.270Z,52.78
2023-05-07T19:46:33.635Z,52.85
2023-05-07T19:49:18.953Z,52.96
2023-05-07T19:52:04.687Z,53.14
2023-05-07T19:54:49.909Z,53.58
2023-05-07T19:57:35.195Z,53.94
2023-05-07T20:00:21.882Z,54.25
2023-05-07T20:03:07.480Z,54.69
2023-05-07T20:05:52.833Z,54.71
2023-05-07T20:08:38.472Z,54.86
2023-05-07T20:11:23.685Z,56.07
2023-05-07T20:14:10.027Z,56.46
2023-05-07T20:16:55.407Z,56.65
2023-05-07T20:19:40.502Z,57.52
2023-05-07T20:22:29.507Z,57.80
2023-05-07T20:25:14.972Z,58.36
2023-05-07T20:28:00.042Z,58.72
2023-05-07T20:30:45.233Z,59.53
2023-05-07T20:33:30.980Z,59.54
2023-05-07T20:36:16.171Z,60.07
2023-05-07T20:39:01.736Z,60.44
2023-05-07T20:41:47.279Z,60.64
2023-05-07T20:44:33.805Z,60.68
2023-05-07T20:47:19.435Z,60.47
2023-05-07T20:50:05.413Z,61.01
2023-05-07T20:52:50.646Z,60.99
2023-05-07T20:55:35.891Z,61.28
2023-05-07T20:58:21.035Z,61.59
2023-05-07T21:01:06.833Z,61.73
2023-05-07T21:03:54.117Z,61.29
2023-05-07T21:06:40.296Z,61.27
2023-05-07T21:09:26.299Z,61.53
2023-05-07T21:12:11.587Z,61.31
2023-05-07T21:14:57.302Z,61.43
2023-05-07T21:17:42.892Z,61.60
2023-05-07T21:20:29.583Z,61.76
2023-05-07T21:23:14.527Z,62.21
2023-05-07T21:25:59.943Z,61.84
2023-05-07T21:28:45.472Z,62.08
2023-05-07T21:31:30.933Z,62.05
2023-05-07T21:34:15.988Z,62.47
2023-05-07T21:37:01.350Z,62.26
2023-05-07T21:39:46.437Z,62.80
2023-05-07T21:42:32.098Z,62.84
2023-05-07T21:45:17.379Z,62.70
2023-05-07T21:48:02.773Z,62.96
2023-05-07T21:50:48.981Z,63.07
2023-05-07T21:53:34.846Z,63.68
2023-05-07T21:56:20.141Z,63.76
2023-05-07T21:59:05.675Z,64.17
2023-05-07T22:01:51.174Z,64.37
2023-05-07T22:04:36.585Z,64.72
2023-05-07T22:07:21.787Z,65.13
2023-05-07T22:10:07.777Z,65.05
2023-05-07T22:12:53.351Z,65.29
2023-05-07T22:15:53.240Z,65.80
2023-05-07T22:18:43.738Z,65.89
2023-05-07T22:21:28.986Z,65.99
2023-05-07T22:24:14.259Z,66.24
2023-05-07T22:26:59.959Z,66.48
2023-05-07T22:29:45.657Z,66.05
2023-05-07T22:32:30.767Z,66.33
2023-05-07T22:35:16.397Z,66.44
2023-05-07T22:38:01.711Z,66.87
2023-05-07T22:40:47.199Z,66.60
2023-05-07T22:43:32.250Z,66.98
2023-05-07T22:46:17.798Z,67.70
2023-05-07T22:49:03.269Z,67.73
2023-05-07T22:51:48.502Z,67.98
2023-05-07T22:54:34.013Z,67.74
2023-05-07T22:57:19.089Z,67.67
2023-05-07T23:00:05.755Z,68.23
2023-05-07T23:02:51.500Z,68.41
2023-05-07T23:05:36.436Z,68.35
2023-05-07T23:08:21.901Z,68.20
2023-05-07T23:11:07.567Z,68.71
2023-05-07T23:13:52.793Z,68.15
2023-05-07T23:16:37.967Z,67.86
2023-05-07T23:19:23.628Z,68.54
2023-05-07T23:22:10.089Z,68.33
2023-05-07T23:24:55.170Z,68.31
2023-05-07T23:27:40.618Z,68.56
2023-05-07T23:30:26.021Z,68.03
2023-05-07T23:33:11.221Z,67.92
2023-05-07T23:36:04.694Z,67.98
2023-05-07T23:38:49.933Z,68.84
2023-05-07T23:41:35.755Z,68.73
2023-05-07T23:44:21.224Z,68.97
2023-05-07T23:47:06.686Z,69.24
2023-05-07T23:49:52.219Z,69.69
2023-05-07T23:52:37.513Z,70.66
2023-05-07T23:55:22.664Z,70.04
2023-05-07T23:58:08.186Z,70.24
